Time;durP1;ratioP1;P1;durP2;ratioP2;P2;SDS_P1;SDS_P2;PMS_P1;PMS_P2;Temp;Humidity;BMP_temperature;BMP_pressure;BME280_temperature;BME280_humidity;BME280_pressure;Samples;Min_cycle;Max_cycle;Signal;HPM_P1;HPM_P2
2021/07/30 00:01:33;;;;;;;14.07;2.80;;;;;;;15.42;89.29;99374.88;4904266;29;20063;-83
2021/07/30 00:03:59;;;;;;;13.73;3.08;;;;;;;15.96;89.34;99480.31;4903886;29;20009;-84
2021/07/30 00:06:25;;;;;;;11.63;2.50;;;;;;;16.17;89.36;99498.28;4892798;29;20025;-84
2021/07/30 00:11:26;;;;;;;9.25;2.75;;;;;;;16.14;89.18;99490.66;5745034;23;20063;-84
2021/07/30 00:37:01;;;;;;;12.52;2.80;;;;;;;15.31;88.77;99344.22;5747143;23;20091;-82
2021/07/30 00:39:27;;;;;;;11.43;2.88;;;;;;;15.20;88.40;99327.13;4903037;29;20027;-83
2021/07/30 00:41:54;;;;;;;10.48;2.58;;;;;;;15.43;88.39;99355.66;4903497;29;20013;-85
2021/07/30 00:46:56;;;;;;;9.93;3.03;;;;;;;15.42;89.22;99342.34;5281827;23;20055;-84
2021/07/30 00:51:57;;;;;;;10.10;2.63;;;;;;;15.46;89.60;99344.28;5679567;23;20049;-83
2021/07/30 00:54:24;;;;;;;13.55;2.88;;;;;;;15.55;89.72;99365.44;4911137;29;20029;-85
2021/07/30 00:56:53;;;;;;;7.18;2.33;;;;;;;15.25;89.82;99312.75;4903223;29;20024;-83
2021/07/30 01:07:04;;;;;;;10.68;2.75;;;;;;;15.10;92.07;99331.66;5711757;23;20038;-82
2021/07/30 01:09:30;;;;;;;15.30;2.90;;;;;;;14.96;92.56;99306.97;4865879;29;20028;-81
2021/07/30 01:14:31;;;;;;;12.45;2.90;;;;;;;14.63;93.23;99264.84;5159952;23;20061;-83
2021/07/30 01:16:57;;;;;;;11.48;2.97;;;;;;;15.65;93.55;99427.81;4902332;29;20029;-83
2021/07/30 01:19:24;;;;;;;12.82;3.08;;;;;;;15.55;93.70;99425.09;4909764;29;20008;-82
2021/07/30 01:21:54;;;;;;;15.38;3.30;;;;;;;15.56;94.35;99434.84;4917473;29;20040;-83
2021/07/30 01:24:21;;;;;;;15.27;3.13;;;;;;;14.96;93.97;99336.75;4922052;29;20039;-83
2021/07/30 01:26:48;;;;;;;17.40;3.58;;;;;;;14.52;94.01;99277.50;4921449;29;20044;-83
2021/07/30 01:29:14;;;;;;;14.02;2.88;;;;;;;15.60;94.18;99427.81;4922041;29;20013;-82
2021/07/30 01:31:39;;;;;;;13.07;2.60;;;;;;;15.60;94.26;99449.53;4903914;29;20070;-82
2021/07/30 01:34:05;;;;;;;12.02;2.80;;;;;;;14.56;94.28;99270.50;4898401;29;20043;-81
2021/07/30 01:36:31;;;;;;;13.52;3.40;;;;;;;15.00;94.10;99346.81;4899028;29;20009;-80
2021/07/30 01:38:57;;;;;;;14.63;3.15;;;;;;;14.85;93.49;99308.00;4898173;29;20467;-81
2021/07/30 01:41:22;;;;;;;11.80;2.55;;;;;;;15.32;93.47;99370.25;4898164;29;20032;-82
2021/07/30 01:43:48;;;;;;;9.98;2.30;;;;;;;15.31;93.38;99378.66;4904902;29;20017;-83
2021/07/30 01:46:14;;;;;;;7.80;2.58;;;;;;;14.94;92.32;99312.66;4904592;29;20085;-83
2021/07/30 01:48:39;;;;;;;16.77;2.47;;;;;;;14.96;92.24;99315.09;4905883;29;20013;-82
2021/07/30 01:51:06;;;;;;;9.32;2.45;;;;;;;14.88;91.84;99283.91;4905509;29;20020;-83
2021/07/30 01:53:32;;;;;;;11.35;2.47;;;;;;;15.16;92.12;99338.75;4906250;29;20027;-85
2021/07/30 01:56:03;;;;;;;13.60;2.95;;;;;;;15.59;91.46;99389.03;4906279;29;20057;-82
2021/07/30 02:01:06;;;;;;;8.10;2.22;;;;;;;14.74;90.72;99251.09;5563763;23;20342;-83
2021/07/30 02:03:31;;;;;;;11.32;2.67;;;;;;;15.90;90.39;99422.50;4887805;29;20042;-83
2021/07/30 02:05:57;;;;;;;10.18;2.05;;;;;;;15.93;90.45;99421.16;4887075;29;20093;-83
2021/07/30 02:08:24;;;;;;;12.23;2.25;;;;;;;15.31;90.81;99333.38;5352397;23;20064;-83
2021/07/30 02:10:50;;;;;;;9.38;2.35;;;;;;;15.98;91.12;99421.97;4914347;29;20009;-83
2021/07/30 02:16:00;;;;;;;9.55;2.40;;;;;;;15.42;91.47;99345.88;4903429;29;20078;-82
2021/07/30 02:18:26;;;;;;;10.82;2.20;;;;;;;15.02;91.23;99287.75;4921758;29;20017;-83
2021/07/30 02:20:52;;;;;;;9.85;1.92;;;;;;;14.93;90.61;99259.56;4897649;29;20014;-84
2021/07/30 02:23:19;;;;;;;6.05;2.55;;;;;;;16.01;90.66;99425.25;4887429;29;20026;-83
2021/07/30 02:25:45;;;;;;;12.40;2.55;;;;;;;14.94;90.38;99255.78;4887234;29;20029;-84
2021/07/30 02:28:11;;;;;;;10.15;2.70;;;;;;;15.52;90.77;99337.75;4886625;29;20021;-82
2021/07/30 02:30:37;;;;;;;11.48;3.03;;;;;;;15.55;90.29;99332.91;4887521;29;20050;-83
2021/07/30 02:33:04;;;;;;;10.38;2.42;;;;;;;15.05;90.17;99253.91;4887866;29;20456;-83
2021/07/30 02:35:31;;;;;;;13.20;2.40;;;;;;;16.16;90.51;99415.22;4887246;29;20009;-83
2021/07/30 02:37:56;;;;;;;10.55;2.00;;;;;;;16.17;90.10;99424.19;4902121;29;20055;-83
2021/07/30 02:40:22;;;;;;;8.05;2.05;;;;;;;15.50;90.10;99310.13;4885858;29;20030;-83
2021/07/30 02:42:48;;;;;;;14.73;2.70;;;;;;;15.14;90.02;99260.44;4902175;29;20014;-83
2021/07/30 02:45:14;;;;;;;7.65;1.95;;;;;;;16.23;89.94;99436.69;4886107;29;20033;-84
2021/07/30 02:47:39;;;;;;;14.05;2.40;;;;;;;15.52;89.35;99296.28;4901718;29;20033;-84
2021/07/30 02:50:06;;;;;;;8.88;2.40;;;;;;;15.92;89.63;99360.66;4887359;29;20018;-84
2021/07/30 02:52:32;;;;;;;10.13;2.40;;;;;;;15.46;89.37;99297.38;4893479;29;20024;-83
2021/07/30 02:54:59;;;;;;;11.55;2.38;;;;;;;16.31;89.60;99413.59;4905231;29;20041;-83
2021/07/30 02:57:25;;;;;;;11.65;2.72;;;;;;;16.30;89.78;99409.28;4901650;29;20017;-83
2021/07/30 02:59:51;;;;;;;12.35;2.30;;;;;;;16.26;89.62;99409.00;4905924;29;20025;-83
2021/07/30 03:02:18;;;;;;;8.73;2.22;;;;;;;15.17;89.57;99240.13;4900060;29;20037;-83
2021/07/30 03:04:46;;;;;;;11.07;2.33;;;;;;;16.32;90.01;99420.66;4886768;29;20112;-84
2021/07/30 03:07:12;;;;;;;10.60;2.58;;;;;;;15.34;90.47;99253.44;4888475;29;20034;-83
2021/07/30 03:09:38;;;;;;;10.13;2.50;;;;;;;15.70;91.29;99314.81;4900893;29;20066;-84
2021/07/30 03:12:04;;;;;;;11.15;2.30;;;;;;;15.22;91.35;99245.56;4907393;29;20023;-83
2021/07/30 03:14:29;;;;;;;11.52;2.30;;;;;;;15.09;92.01;99248.78;4920521;29;20017;-83
2021/07/30 03:16:55;;;;;;;11.48;2.55;;;;;;;15.20;92.92;99272.13;4901581;29;20093;-82
2021/07/30 03:19:21;;;;;;;13.60;2.65;;;;;;;15.75;93.28;99373.66;4900703;29;20024;-83
2021/07/30 03:21:47;;;;;;;13.82;2.92;;;;;;;15.33;93.48;99317.69;4873145;29;20037;-82
2021/07/30 03:24:12;;;;;;;15.85;3.35;;;;;;;14.88;93.92;99256.84;4886343;29;20049;-83
2021/07/30 03:26:39;;;;;;;13.65;2.92;;;;;;;14.99;94.10;99272.03;4886000;29;20053;-83
2021/07/30 03:29:06;;;;;;;15.98;2.90;;;;;;;14.90;94.20;99278.22;4885714;29;20009;-83
2021/07/30 03:31:32;;;;;;;15.38;3.00;;;;;;;15.02;94.46;99287.75;4886341;29;20029;-83
2021/07/30 03:33:59;;;;;;;10.80;2.60;;;;;;;15.26;94.24;99330.66;4885534;29;20021;-83
2021/07/30 03:36:25;;;;;;;14.27;3.00;;;;;;;15.82;93.93;99420.31;4885884;29;20018;-83
2021/07/30 03:38:51;;;;;;;14.32;3.47;;;;;;;15.15;94.28;99312.72;4885478;29;20017;-83
2021/07/30 03:41:17;;;;;;;10.85;2.78;;;;;;;14.92;94.37;99268.75;4886273;29;20072;-83
2021/07/30 03:43:42;;;;;;;13.15;2.70;;;;;;;15.92;94.69;99408.66;4885145;29;20037;-84
2021/07/30 03:46:08;;;;;;;17.58;2.90;;;;;;;15.58;94.26;99348.63;4886263;29;20017;-83
2021/07/30 03:48:34;;;;;;;15.90;2.88;;;;;;;15.91;94.42;99418.72;4885780;29;20013;-83
2021/07/30 03:51:00;;;;;;;12.82;2.42;;;;;;;15.49;94.00;99342.91;4912864;29;20029;-84
2021/07/30 03:53:26;;;;;;;16.17;3.03;;;;;;;15.06;93.71;99276.41;4912530;29;20024;-82
2021/07/30 03:55:52;;;;;;;11.70;2.67;;;;;;;15.44;93.79;99332.88;4886007;29;20026;-83
2021/07/30 03:58:18;;;;;;;14.57;3.03;;;;;;;16.00;93.77;99410.06;4909840;29;20032;-83
2021/07/30 04:00:44;;;;;;;13.70;3.55;;;;;;;14.83;93.30;99227.00;4903704;29;20033;-83
2021/07/30 04:03:11;;;;;;;13.35;2.97;;;;;;;15.32;93.92;99307.91;4895883;29;20058;-83
2021/07/30 04:05:37;;;;;;;14.32;3.38;;;;;;;15.77;93.89;99367.97;4884165;29;20070;-83
2021/07/30 04:08:04;;;;;;;16.92;3.10;;;;;;;15.03;93.63;99254.19;4899863;29;20041;-83
2021/07/30 04:10:32;;;;;;;13.43;2.97;;;;;;;15.37;93.72;99316.06;4885019;29;20052;-83
2021/07/30 04:12:58;;;;;;;8.77;2.20;;;;;;;15.61;93.42;99337.25;4885085;29;20017;-82
2021/07/30 04:15:25;;;;;;;12.07;2.13;;;;;;;15.41;93.22;99308.22;4884574;29;20014;-83
2021/07/30 04:17:51;;;;;;;15.88;2.97;;;;;;;15.42;92.97;99307.94;4901384;29;20013;-84
2021/07/30 04:20:16;;;;;;;13.07;2.60;;;;;;;15.65;93.11;99328.31;4899829;29;20020;-83
2021/07/30 04:22:44;;;;;;;12.75;2.80;;;;;;;16.13;92.75;99407.63;4885338;29;20010;-84
2021/07/30 04:25:10;;;;;;;14.30;3.30;;;;;;;15.29;92.99;99275.91;4884198;29;20036;-83
2021/07/30 04:27:38;;;;;;;10.93;2.70;;;;;;;15.57;93.15;99318.00;4885604;29;20097;-83
2021/07/30 04:30:04;;;;;;;11.13;2.70;;;;;;;15.77;93.59;99343.56;4899642;29;20013;-84
2021/07/30 04:32:30;;;;;;;10.38;2.88;;;;;;;15.23;93.24;99258.84;4899756;29;20037;-83
2021/07/30 04:34:57;;;;;;;13.32;2.92;;;;;;;15.66;93.82;99319.16;4885038;29;20013;-84
2021/07/30 04:37:23;;;;;;;15.13;3.28;;;;;;;16.18;94.06;99396.75;4884630;29;20041;-83
2021/07/30 04:39:49;;;;;;;15.90;2.75;;;;;;;15.39;94.16;99286.78;4884585;29;20036;-83
2021/07/30 04:42:18;;;;;;;19.83;3.67;;;;;;;15.47;94.64;99299.00;4900127;29;20033;-82
2021/07/30 04:44:43;;;;;;;15.55;3.30;;;;;;;15.04;94.86;99244.97;4899260;29;20012;-82
2021/07/30 04:47:09;;;;;;;17.25;3.17;;;;;;;15.95;94.77;99391.84;4883653;29;20026;-81
2021/07/30 04:49:35;;;;;;;16.45;3.80;;;;;;;15.42;95.22;99305.22;4883850;29;20094;-82
2021/07/30 04:52:01;;;;;;;13.18;3.13;;;;;;;15.37;95.17;99294.38;4883829;29;20074;-82
2021/07/30 04:54:27;;;;;;;14.40;3.05;;;;;;;16.09;95.19;99403.00;4898734;29;20049;-82
2021/07/30 04:56:53;;;;;;;14.65;3.05;;;;;;;15.30;95.28;99260.47;4884382;29;20033;-83
2021/07/30 04:59:21;;;;;;;14.50;3.13;;;;;;;15.69;95.29;99334.88;4885284;29;20034;-83
2021/07/30 05:01:47;;;;;;;15.50;3.00;;;;;;;15.47;95.11;99280.03;4890339;29;20066;-83
2021/07/30 05:04:13;;;;;;;22.45;3.80;;;;;;;16.23;95.43;99420.41;4884553;29;20069;-83
2021/07/30 05:06:39;;;;;;;15.27;3.50;;;;;;;15.65;95.87;99305.81;4884491;29;20009;-82
2021/07/30 05:09:05;;;;;;;12.77;3.20;;;;;;;16.20;95.38;99397.31;4884853;29;20038;-82
2021/07/30 05:11:31;;;;;;;15.80;3.22;;;;;;;15.66;95.29;99313.72;4881234;29;20124;-81
2021/07/30 05:13:57;;;;;;;9.85;2.65;;;;;;;16.21;95.48;99401.66;4865974;29;20058;-83
2021/07/30 05:16:23;;;;;;;12.30;2.90;;;;;;;16.29;95.63;99403.03;4866751;29;20093;-83
2021/07/30 05:18:49;;;;;;;14.30;3.25;;;;;;;15.62;95.66;99307.16;4884644;29;20024;-83
2021/07/30 05:21:15;;;;;;;17.10;3.00;;;;;;;15.38;94.88;99262.66;4884067;29;20037;-83
2021/07/30 05:23:41;;;;;;;15.25;3.20;;;;;;;15.71;95.17;99315.63;4885018;29;20073;-82
2021/07/30 05:26:25;;;;;;;14.43;3.47;;;;;;;16.03;95.26;99352.53;4884246;29;20057;-83
2021/07/30 05:28:52;;;;;;;14.25;3.08;;;;;;;15.78;94.75;99312.63;4882910;29;20053;-83
2021/07/30 05:31:18;;;;;;;9.18;2.63;;;;;;;15.46;94.70;99281.09;4868165;29;20035;-83
2021/07/30 05:33:45;;;;;;;15.02;4.47;;;;;;;15.74;95.19;99344.91;5088570;23;20064;-83
2021/07/30 05:36:19;;;;;;;14.70;4.15;;;;;;;16.02;95.63;99397.03;4909064;29;20049;-83
2021/07/30 05:38:45;;;;;;;17.45;3.47;;;;;;;15.65;95.43;99360.03;4901898;29;20016;-83
2021/07/30 05:41:12;;;;;;;17.10;3.10;;;;;;;15.01;95.24;99285.31;5141404;23;20049;-83
2021/07/30 05:43:39;;;;;;;15.85;2.72;;;;;;;15.01;95.29;99291.56;4902614;29;20041;-84
2021/07/30 05:46:05;;;;;;;19.15;3.20;;;;;;;15.87;95.97;99430.38;4902560;29;20036;-84
2021/07/30 05:48:31;;;;;;;20.40;3.28;;;;;;;15.61;95.72;99381.44;4902616;29;20016;-84
2021/07/30 05:53:32;;;;;;;16.95;3.10;;;;;;;15.01;95.84;99279.91;5875094;23;20023;-82
2021/07/30 05:56:01;;;;;;;17.92;3.78;;;;;;;15.88;96.16;99402.16;4884461;29;20037;-84
2021/07/30 05:58:26;;;;;;;13.35;3.20;;;;;;;15.36;96.24;99321.72;4883938;29;20014;-84
2021/07/30 06:00:53;;;;;;;13.40;3.80;;;;;;;15.54;95.84;99336.72;4881103;29;20036;-82
2021/07/30 06:03:20;;;;;;;14.65;2.80;;;;;;;15.34;95.68;99303.03;4881468;29;20013;-84
2021/07/30 06:16:10;;;;;;;9.02;2.60;;;;;;;16.09;93.86;99355.00;5674497;23;20045;-83
2021/07/30 06:39:17;;;;;;;9.52;2.38;;;;;;;15.77;92.67;99270.34;4888881;23;20068;-84
2021/07/30 06:41:42;;;;;;;9.07;2.78;;;;;;;16.06;92.49;99319.41;4895754;29;20033;-84
2021/07/30 06:44:10;;;;;;;11.98;2.72;;;;;;;15.79;92.54;99287.13;4905643;29;20052;-84
2021/07/30 06:46:36;;;;;;;9.95;2.45;;;;;;;15.96;92.37;99310.22;4893561;29;20077;-85
2021/07/30 06:49:04;;;;;;;7.00;2.05;;;;;;;16.59;92.15;99407.63;4889552;29;20017;-84
2021/07/30 06:51:30;;;;;;;6.70;2.15;;;;;;;16.67;91.91;99408.97;4891124;29;20025;-84
2021/07/30 06:53:55;;;;;;;10.50;2.03;;;;;;;15.68;91.66;99253.78;4888381;29;20093;-84
2021/07/30 06:56:21;;;;;;;10.35;2.55;;;;;;;15.93;91.93;99289.06;4886330;29;20038;-85
2021/07/30 06:58:47;;;;;;;9.60;2.30;;;;;;;16.28;92.15;99357.97;4883187;29;20062;-83
2021/07/30 07:01:13;;;;;;;13.57;2.70;;;;;;;15.96;91.55;99301.28;4885074;29;20037;-83
2021/07/30 07:03:39;;;;;;;13.38;2.50;;;;;;;15.60;91.28;99233.41;4885998;29;20009;-85
2021/07/30 07:06:04;;;;;;;10.65;2.20;;;;;;;16.07;91.58;99310.22;4886747;29;20048;-84
2021/07/30 07:08:30;;;;;;;11.88;2.35;;;;;;;15.80;91.40;99269.78;4885644;29;20045;-84
2021/07/30 07:48:17;;;;;;;9.93;2.53;;;;;;;15.70;93.19;99281.44;5970046;23;20020;-82
2021/07/30 07:50:43;;;;;;;12.32;2.10;;;;;;;16.33;93.22;99382.41;4867376;29;20054;-83
2021/07/30 07:53:15;;;;;;;11.18;2.67;;;;;;;15.71;92.89;99278.47;4885494;29;20029;-83
2021/07/30 07:55:42;;;;;;;9.27;3.15;;;;;;;16.48;92.89;99402.47;4882873;29;20029;-83
2021/07/30 07:58:08;;;;;;;12.10;2.70;;;;;;;15.79;92.45;99284.41;4866485;29;20030;-82
2021/07/30 08:00:34;;;;;;;9.65;2.72;;;;;;;16.89;92.60;99430.44;4865562;29;20022;-84
2021/07/30 08:03:00;;;;;;;11.52;2.47;;;;;;;16.90;92.37;99430.16;4867644;29;20014;-84
2021/07/30 08:05:26;;;;;;;10.52;2.13;;;;;;;16.25;92.01;99336.78;4865415;29;20018;-84
2021/07/30 08:07:51;;;;;;;9.43;2.25;;;;;;;16.49;91.94;99355.22;4848220;29;20086;-85
2021/07/30 08:10:17;;;;;;;10.27;2.60;;;;;;;17.10;91.74;99439.38;4875535;29;20013;-85
2021/07/30 08:12:43;;;;;;;9.82;2.25;;;;;;;16.19;90.82;99308.84;4866411;29;20034;-84
2021/07/30 08:15:09;;;;;;;12.85;2.90;;;;;;;17.21;91.11;99448.31;4866713;29;20055;-83
2021/07/30 08:17:35;;;;;;;15.40;3.30;;;;;;;16.28;91.35;99300.16;4879932;29;20041;-83
2021/07/30 08:20:01;;;;;;;10.75;2.58;;;;;;;16.54;91.10;99314.50;4877282;29;20029;-84
2021/07/30 08:22:27;;;;;;;7.82;1.75;;;;;;;16.43;90.63;99298.22;4866548;29;20037;-85
2021/07/30 08:24:53;;;;;;;12.70;2.60;;;;;;;16.48;90.73;99291.97;4866923;29;20026;-84
2021/07/30 08:27:18;;;;;;;8.07;2.20;;;;;;;16.48;90.60;99270.25;4865894;29;20492;-84
2021/07/30 08:29:44;;;;;;;9.32;2.20;;;;;;;17.45;90.57;99440.34;4866362;29;20128;-83
2021/07/30 08:32:10;;;;;;;10.80;2.20;;;;;;;16.49;90.16;99271.88;4866364;29;20088;-83
2021/07/30 08:34:40;;;;;;;11.13;2.90;;;;;;;17.49;90.48;99434.09;4883445;29;20021;-84
2021/07/30 08:44:51;;;;;;;9.40;2.63;;;;;;;17.97;89.49;99460.81;5069377;23;20049;-84
2021/07/30 08:47:22;;;;;;;7.82;2.30;;;;;;;16.95;88.52;99304.34;4922368;29;20016;-85
2021/07/30 08:49:48;;;;;;;16.52;2.35;;;;;;;17.36;88.59;99356.63;4919415;29;20036;-84
2021/07/30 08:52:17;;;;;;;13.02;2.40;;;;;;;16.93;88.70;99292.97;4904624;29;20065;-85
2021/07/30 08:54:52;;;;;;;6.45;2.10;;;;;;;18.10;89.26;99457.47;4913676;29;20039;-85
2021/07/30 09:05:25;;;;;;;9.48;2.50;;;;;;;18.35;89.27;99458.41;5940049;23;20015;-80
2021/07/30 11:21:29;;;;;;;12.45;3.50;;;;;;;19.32;81.21;99365.63;4927332;23;20045;-84
2021/07/30 11:39:33;;;;;;;12.73;3.80;;;;;;;19.17;80.73;99376.72;4940099;24;20052;-85
2021/07/30 11:54:54;;;;;;;14.30;4.43;;;;;;;19.41;80.81;99376.72;4957761;23;20061;-81
2021/07/30 11:57:27;;;;;;;19.33;5.18;;;;;;;20.54;80.00;99570.72;4872506;29;20047;-84
2021/07/30 11:59:55;;;;;;;17.90;4.57;;;;;;;19.41;80.86;99423.06;4864774;29;20035;-85
2021/07/30 12:02:28;;;;;;;18.15;4.38;;;;;;;19.24;81.64;99399.81;4867363;29;20038;-83
2021/07/30 12:04:55;;;;;;;14.45;4.15;;;;;;;20.27;82.11;99568.59;4867394;29;20040;-84
2021/07/30 12:07:28;;;;;;;12.85;3.88;;;;;;;19.28;81.73;99415.59;4866113;29;20013;-85
2021/07/30 12:09:58;;;;;;;16.25;4.60;;;;;;;20.23;81.64;99577.66;4861462;29;20026;-84
2021/07/30 12:12:30;;;;;;;13.98;4.32;;;;;;;19.53;81.88;99466.31;4864749;29;20018;-84
2021/07/30 12:14:58;;;;;;;14.07;4.28;;;;;;;19.52;81.87;99460.03;4867408;29;20070;-82
2021/07/30 12:17:29;;;;;;;9.57;3.92;;;;;;;19.95;81.89;99526.41;4861850;29;20082;-83
2021/07/30 12:27:40;;;;;;;12.18;3.70;;;;;;;19.54;81.01;99449.66;5420980;23;20040;-85
2021/07/30 14:57:01;;;;;;;12.75;2.95;;;;;;;19.10;79.31;99562.47;5836498;23;20032;-82
2021/07/30 14:59:31;;;;;;;9.70;3.63;;;;;;;20.07;79.53;99691.75;4879952;29;20030;-84
2021/07/30 15:01:57;;;;;;;7.30;3.10;;;;;;;20.14;78.89;99717.63;4878933;29;20025;-85
2021/07/30 15:06:58;;;;;;;8.80;3.30;;;;;;;19.55;78.61;99584.97;5743990;23;20045;-83
2021/07/30 15:37:48;;;;;;;8.65;2.90;;;;;;;19.19;78.74;99582.56;5691850;23;20045;-80
2021/07/30 17:49:04;;;;;;;7.60;3.25;;;;;;;18.88;80.55;99801.97;5929371;23;21494;31
2021/07/30 18:03:57;;;;;;;9.80;3.90;;;;;;;18.68;83.90;99822.72;5929418;23;20024;31
2021/07/30 18:34:50;;;;;;;9.23;3.80;;;;;;;17.37;85.06;99662.78;5837310;23;20032;-84
2021/07/30 18:37:16;;;;;;;10.93;4.20;;;;;;;17.37;85.49;99692.69;4887379;29;20029;-83
2021/07/30 18:39:42;;;;;;;12.98;3.83;;;;;;;17.19;86.09;99670.69;5313253;23;20067;-82
2021/07/30 18:42:08;;;;;;;13.05;4.25;;;;;;;17.73;86.64;99768.88;4905718;29;20037;-84
2021/07/30 18:44:34;;;;;;;11.13;4.03;;;;;;;17.51;86.65;99743.84;4920647;29;20051;-82
2021/07/30 18:47:01;;;;;;;11.40;4.25;;;;;;;17.73;86.71;99771.59;4913027;29;20017;-85
2021/07/30 18:49:27;;;;;;;11.70;3.90;;;;;;;18.11;86.93;99842.94;4905514;29;20025;-84
2021/07/30 18:51:53;;;;;;;12.18;4.00;;;;;;;16.66;86.37;99617.31;4889252;29;20053;-82
2021/07/30 18:54:19;;;;;;;14.80;4.43;;;;;;;16.97;86.52;99689.94;4885828;29;20226;-83
2021/07/30 18:56:45;;;;;;;11.32;4.20;;;;;;;17.39;86.52;99733.25;4897607;29;20025;-85
2021/07/30 18:59:13;;;;;;;12.30;4.53;;;;;;;16.93;86.57;99677.97;4904506;29;20081;-81
2021/07/30 19:01:39;;;;;;;9.70;4.10;;;;;;;16.90;86.59;99696.44;4900329;29;20072;-83
2021/07/30 19:04:05;;;;;;;12.60;4.18;;;;;;;17.84;86.45;99840.47;4900239;29;20032;-85
2021/07/30 19:06:30;;;;;;;11.93;4.20;;;;;;;16.80;86.16;99684.75;4886788;29;20093;-85
2021/07/30 19:08:58;;;;;;;15.27;4.05;;;;;;;17.86;nan;99856.56;4905765;29;20021;-85
2021/07/30 19:11:25;;;;;;;9.15;3.53;;;;;;;17.09;85.88;99744.88;4905406;29;20013;-84
2021/07/30 19:13:51;;;;;;;14.07;4.88;;;;;;;17.37;86.01;99793.31;4905946;29;20097;-85
2021/07/30 19:16:19;;;;;;;11.88;3.92;;;;;;;17.08;86.01;99752.19;4912478;29;20041;-84
2021/07/30 19:18:45;;;;;;;13.52;4.10;;;;;;;16.85;85.83;99726.34;4886571;29;20028;-84
2021/07/30 19:21:10;;;;;;;10.45;4.13;;;;;;;16.89;85.79;99727.44;4886434;29;20018;-84
2021/07/30 19:23:36;;;;;;;9.90;4.35;;;;;;;16.61;85.74;99695.22;4886591;29;20041;-85
2021/07/30 19:26:02;;;;;;;12.63;4.13;;;;;;;17.01;85.54;99762.50;4886115;29;20005;-83
2021/07/30 19:28:28;;;;;;;10.35;4.40;;;;;;;16.55;85.56;99682.72;4886475;29;20036;-85
2021/07/30 19:30:53;;;;;;;13.45;4.38;;;;;;;16.76;85.86;99719.78;4885782;29;20026;-84
2021/07/30 19:33:19;;;;;;;11.55;4.13;;;;;;;17.60;85.25;99865.44;4886743;29;20021;-84
2021/07/30 19:35:44;;;;;;;12.07;4.38;;;;;;;16.59;84.60;99717.25;4885176;29;20048;-84
2021/07/30 19:38:10;;;;;;;11.43;4.10;;;;;;;16.42;84.32;99678.59;4885516;29;20448;-84
2021/07/30 19:40:38;;;;;;;13.80;4.28;;;;;;;16.73;84.55;99739.28;4885739;29;20057;-84
2021/07/30 19:43:04;;;;;;;12.65;4.50;;;;;;;16.36;84.78;99685.09;4886362;29;20026;-84
2021/07/30 19:45:30;;;;;;;12.65;4.20;;;;;;;17.44;84.90;99850.16;4885655;29;20029;-84
2021/07/30 19:47:56;;;;;;;15.52;4.60;;;;;;;16.68;84.63;99747.41;4886741;29;20021;-83
2021/07/30 19:50:21;;;;;;;10.70;4.20;;;;;;;16.83;84.50;99760.28;4885701;29;20045;-83
2021/07/30 19:52:47;;;;;;;9.15;4.05;;;;;;;17.53;84.62;99892.09;4900844;29;20025;-85
2021/07/30 20:13:13;;;;;;;7.03;3.53;;;;;;;17.45;82.88;99873.59;4883201;29;20090;-83
2021/07/30 20:18:14;;;;;;;10.15;3.22;;;;;;;16.73;81.73;99779.22;4891888;24;20054;-83
2021/07/30 20:23:15;;;;;;;8.02;3.50;;;;;;;16.11;81.31;99691.19;5479676;23;20060;-83
2021/07/30 20:48:57;;;;;;;12.95;3.55;;;;;;;16.59;80.77;99732.72;5751438;23;20072;-84
2021/07/30 20:51:23;;;;;;;9.93;4.00;;;;;;;16.78;81.36;99758.34;4895411;29;20073;-84
2021/07/30 20:53:48;;;;;;;8.90;3.55;;;;;;;16.45;80.59;99722.31;4896974;29;20032;-84
2021/07/30 20:56:14;;;;;;;11.35;3.20;;;;;;;16.28;79.66;99688.31;4884940;29;20036;-85
2021/07/30 20:58:40;;;;;;;8.50;3.28;;;;;;;17.06;79.37;99799.78;4895989;29;20044;-84
2021/07/30 21:01:11;;;;;;;9.35;3.40;;;;;;;16.59;79.09;99719.13;4889154;29;20005;-84
2021/07/30 21:03:37;;;;;;;9.27;3.53;;;;;;;16.31;78.94;99690.50;4886024;29;20033;-84
2021/07/30 21:06:08;;;;;;;10.57;3.88;;;;;;;16.77;79.01;99770.28;4885546;29;20034;-83
2021/07/30 21:08:34;;;;;;;8.13;3.00;;;;;;;16.29;78.63;99687.22;4885256;29;20029;-85
2021/07/30 21:11:07;;;;;;;11.68;3.75;;;;;;;16.47;78.79;99708.47;4884931;29;20040;-85
2021/07/30 21:16:08;;;;;;;10.65;3.42;;;;;;;16.21;79.42;99669.53;5603612;23;20620;-83
2021/07/30 21:18:34;;;;;;;9.75;3.25;;;;;;;16.56;79.40;99725.09;4884694;29;20094;-84
2021/07/30 21:21:00;;;;;;;8.63;3.50;;;;;;;16.62;79.42;99726.72;4885423;29;20017;-83
2021/07/30 21:23:26;;;;;;;10.07;4.00;;;;;;;16.21;79.43;99670.34;4884932;29;20048;-84
2021/07/30 21:25:52;;;;;;;9.10;3.70;;;;;;;16.33;79.26;99685.63;4884525;29;20030;-83
2021/07/30 21:28:17;;;;;;;8.10;3.47;;;;;;;16.53;79.51;99706.63;4870207;29;20014;-84
2021/07/30 21:30:43;;;;;;;10.30;3.40;;;;;;;16.45;79.05;99713.34;4887569;29;20029;-83
2021/07/30 21:33:12;;;;;;;8.75;3.15;;;;;;;16.54;78.84;99714.50;4902896;29;20032;-83
2021/07/30 21:38:10;;;;;;;10.65;3.30;;;;;;;17.53;79.58;99877.69;5267894;23;20098;-83
2021/07/30 21:40:37;;;;;;;7.03;3.30;;;;;;;17.52;79.93;99867.88;4901811;29;20102;-83
2021/07/30 21:43:03;;;;;;;9.02;3.70;;;;;;;16.25;80.01;99684.22;4906930;29;20118;-82
2021/07/30 21:45:34;;;;;;;9.00;3.63;;;;;;;16.32;80.17;99686.69;4902305;29;20051;-83
2021/07/30 21:48:01;;;;;;;8.85;3.60;;;;;;;16.35;80.10;99689.69;4904923;29;20016;-83
2021/07/30 21:50:27;;;;;;;10.48;3.60;;;;;;;16.78;80.17;99752.09;4906850;29;20043;-83
2021/07/30 21:52:53;;;;;;;7.15;3.20;;;;;;;17.49;80.22;99871.16;4901820;29;20044;-83
2021/07/30 21:55:19;;;;;;;10.25;3.30;;;;;;;16.51;80.35;99730.50;4902430;29;20036;-84
2021/07/30 21:57:48;;;;;;;12.35;3.25;;;;;;;16.28;80.28;99701.88;4901987;29;20009;-82
2021/07/30 22:00:16;;;;;;;8.50;3.20;;;;;;;16.73;80.54;99755.59;4905070;29;20013;-83
2021/07/30 22:02:43;;;;;;;10.00;3.47;;;;;;;17.44;80.62;99869.22;4905694;29;20019;-83
2021/07/30 22:05:10;;;;;;;10.98;3.70;;;;;;;17.41;80.44;99871.66;4905187;29;20020;-83
2021/07/30 22:07:35;;;;;;;10.30;3.60;;;;;;;16.58;80.11;99736.50;4924349;29;20024;-81
2021/07/30 22:10:02;;;;;;;7.88;3.58;;;;;;;16.11;80.12;99666.78;4924596;29;20048;-82
2021/07/30 22:12:28;;;;;;;9.68;3.38;;;;;;;16.34;79.59;99709.78;4906315;29;20085;-82
2021/07/30 22:14:54;;;;;;;10.57;3.58;;;;;;;17.17;79.73;99836.75;4905415;29;20025;-83
2021/07/30 22:17:21;;;;;;;8.20;3.58;;;;;;;16.98;79.94;99811.13;4905908;29;20017;-83
2021/07/30 22:19:47;;;;;;;11.15;3.42;;;;;;;16.68;80.28;99758.25;4906062;29;20048;-83
2021/07/30 22:22:13;;;;;;;11.25;3.90;;;;;;;17.20;80.06;99846.28;4906921;29;20021;-82
2021/07/30 22:24:39;;;;;;;8.93;3.42;;;;;;;16.22;79.60;99695.59;4906341;29;20016;-84
2021/07/30 22:27:07;;;;;;;9.18;3.30;;;;;;;16.48;79.50;99741.88;4906409;29;20128;-83
2021/07/30 22:29:33;;;;;;;8.27;3.15;;;;;;;16.64;79.33;99757.97;4904964;29;20013;-83
2021/07/30 22:31:59;;;;;;;5.85;3.17;;;;;;;16.34;78.94;99709.78;4905286;29;20040;-83
2021/07/30 22:34:25;;;;;;;9.05;3.45;;;;;;;16.14;79.28;99672.50;4901773;29;20302;-84
2021/07/30 22:36:51;;;;;;;7.15;2.83;;;;;;;17.45;79.03;99870.03;4903741;29;20025;-83
2021/07/30 22:39:18;;;;;;;8.50;3.13;;;;;;;16.89;78.96;99789.91;4905925;29;20032;-83
2021/07/30 22:44:24;;;;;;;7.55;3.20;;;;;;;16.68;79.28;99759.09;4905391;29;20077;-84
2021/07/30 22:46:50;;;;;;;5.88;2.70;;;;;;;16.97;79.29;99809.50;4906473;29;20040;-83
2021/07/30 22:49:15;;;;;;;8.13;3.50;;;;;;;17.41;79.45;99867.03;4904779;29;20041;-82
2021/07/30 22:51:41;;;;;;;9.82;3.03;;;;;;;16.48;79.48;99722.88;4913668;29;20032;-84
2021/07/30 22:54:07;;;;;;;10.73;3.20;;;;;;;17.45;79.79;99854.53;4924167;29;20019;-83
2021/07/30 22:56:33;;;;;;;7.70;3.63;;;;;;;17.44;80.21;99868.41;4923101;29;20004;-83
2021/07/30 22:59:00;;;;;;;8.55;3.40;;;;;;;17.38;80.46;99848.50;4924160;29;20040;-84
2021/07/30 23:01:28;;;;;;;8.15;3.25;;;;;;;17.23;80.60;99829.44;4910543;29;20033;-83
2021/07/30 23:03:54;;;;;;;11.02;3.90;;;;;;;17.42;81.01;99859.66;4905314;29;20013;-83
2021/07/30 23:06:19;;;;;;;10.80;3.65;;;;;;;17.25;81.24;99847.13;4902730;29;20139;-83
2021/07/30 23:08:45;;;;;;;11.43;3.90;;;;;;;16.37;81.79;99697.59;4904978;29;20056;-83